Sunday, November 19, 2017, 4:47 AM GMT
Back to Local

CYQA, Muskoka, Ont.

Location: , , Canada Lat: 44.967
Local Time: 4:47 AM GMT ( 4:47 GMT) Lon: -79.3
Time Zone: GMT Elev: 918 ft

Show me the last for .
Show Decoded

2017-11-19 04:33 METAR CYQA 190433Z AUTO 35007G18KT 1 1/4SM -SN BKN007 OVC011 M00/M01 A2921 RMK
                 ICG INTMT SLP902 =
2017-11-19 04:23 METAR CYQA 190423Z AUTO 34009G15KT 1 1/2SM -SN OVC007 M00/M01 A2919 RMK ICG
                 SLP898 =
2017-11-19 04:00 METAR CYQA 190400Z AUTO 34008KT 1 1/4SM -SN BKN005 OVC010 00/M00 A2921 RMK VIS
                 VRB 1-1 3/4 ICG SLP902 =
2017-11-19 03:56 METAR CYQA 190356Z AUTO 34009KT 1 1/4SM -SN BKN005 OVC010 00/M00 A2921 RMK ICG
                 SLP902 =
2017-11-19 03:38 METAR CYQA 190338Z AUTO 34007KT 1 1/2SM -SN BKN005 OVC010 00/M00 A2921 RMK ICG
                 SLP904 =
2017-11-19 03:32 METAR CYQA 190332Z AUTO 34008KT 1 1/2SM -SN BKN003 OVC010 00/M00 A2922 RMK VIS
                 VRB 1 1/4-2 1/2 ICG SLP906 =
2017-11-19 03:24 METAR CYQA 190324Z AUTO 34007KT 1 1/2SM -SN BKN003 OVC010 00/M00 A2922 RMK ICG
                 PAST HR SLP908 =
2017-11-19 03:13 METAR CYQA 190313Z AUTO 35005KT 320V020 1 1/4SM -SN BKN003 OVC015 00/M00 A2922
                 RMK ICG PAST HR SLP906 =
2017-11-19 03:07 METAR CYQA 190307Z AUTO 34005KT 2SM -SN BKN003 OVC015 00/M00 A2922 RMK ICG PAST
                 HR SLP907 =
2017-11-19 03:00 METAR CYQA 190300Z AUTO 34004KT 2 1/4SM -SN BKN003 OVC021 00/M00 A2923 RMK ICG
                 INTMT SLP909 =
2017-11-19 02:58 METAR CYQA 190258Z AUTO 34004KT 2 1/4SM -SN BKN005 OVC021 00/M00 A2923 RMK ICG
                 INTMT SLP909 =
2017-11-19 02:51 METAR CYQA 190251Z AUTO 35004KT 3SM -SN BKN005 OVC021 00/M00 A2923 RMK ICG
                 SLP909 =
2017-11-19 02:45 METAR CYQA 190245Z AUTO 34004KT 3SM -SN BKN005 OVC021 00/00 A2924 RMK SLP912 =
2017-11-19 02:20 METAR CYQA 190220Z AUTO 35004KT 3SM -SN FEW005 BKN016 OVC021 01/00 A2924 RMK
                 SLP913 =
2017-11-19 02:12 METAR CYQA 190212Z AUTO 35004KT 3SM -SN -UP FEW005 OVC016 01/00 A2924 RMK SLP913
                 =
2017-11-19 02:08 METAR CYQA 190208Z AUTO 35003KT 4SM -UP BR FEW005 OVC016 01/00 A2924 RMK SLP914
                 =
2017-11-19 02:04 METAR CYQA 190204Z AUTO 35005KT 5SM -SN -UP FEW005 OVC016 01/01 A2925 RMK SLP916
                 =
2017-11-19 02:00 METAR CYQA 190200Z AUTO 34004KT 310V020 6SM -SN -UP FEW005 OVC016 01/01 A2925
                 RMK SLP916 =
2017-11-19 01:59 METAR CYQA 190159Z AUTO 34005KT 310V030 6SM -RASN -UP FEW005 OVC016 01/01 A2925
                 RMK SLP916 =
2017-11-19 01:54 METAR CYQA 190154Z AUTO 35005KT 310V030 7SM -RA -UP FEW005 OVC014 01/01 A2925
                 RMK SLP915 =
2017-11-19 01:47 METAR CYQA 190147Z AUTO 36005KT 320V020 6SM -RA BR SCT005 OVC014 01/01 A2925 RMK
                 SLP916 =
2017-11-19 01:44 METAR CYQA 190144Z AUTO 35005KT 320V020 5SM -RA BR SCT005 OVC014 01/01 A2925 RMK
                 SLP917 =
2017-11-19 01:37 METAR CYQA 190137Z AUTO 36005KT 320V030 5SM -RA BR BKN005 OVC012 01/01 A2925 RMK
                 SLP916 =
2017-11-19 01:31 METAR CYQA 190131Z AUTO 36004KT 320V050 6SM -RA -UP BR BKN005 OVC012 01/01 A2924
                 RMK SLP914 =
2017-11-19 01:27 METAR CYQA 190127Z AUTO 02004KT 330V050 6SM -UP BR BKN005 OVC012 02/01 A2924 RMK
                 SLP914 =
2017-11-19 01:24 METAR CYQA 190124Z AUTO 01004KT 330V040 5SM -UP BR BKN005 OVC012 02/01 A2925 RMK
                 SLP915 =
2017-11-19 01:18 METAR CYQA 190118Z AUTO 36005KT 330V040 4SM -RA -UP BR BKN005 OVC012 02/01 A2925
                 RMK SLP917 =
2017-11-19 01:10 METAR CYQA 190110Z AUTO 35003KT 4SM -RA BR BKN005 OVC012 02/01 A2925 RMK SLP918
                 =
2017-11-19 01:00 METAR CYQA 190100Z AUTO 36005KT 320V040 3SM RA BR FEW005 OVC010 02/01 A2925 RMK
                 PRESFR SLP918 =
2017-11-19 00:28 METAR CYQA 190028Z AUTO 02003KT 310V070 5SM -RA BR FEW004 OVC010 02/01 A2928 RMK
                 PRESFR SLP926 =
2017-11-19 00:00 METAR CYQA 190000Z AUTO 01003KT 320V050 6SM -RA BR FEW005 BKN010 OVC029 02/01
                 A2929 RMK PCPN 1.5MM PAST HR SLP932 =
2017-11-18 23:53 METAR CYQA 182353Z AUTO 36003KT 330V050 6SM -RA BR FEW005 BKN010 OVC021 02/01
                 A2930 RMK SLP934 =
2017-11-18 23:40 METAR CYQA 182340Z AUTO 02003KT 330V050 3SM -RA BR FEW005 SCT010 OVC019 01/01
                 A2930 RMK SLP933 =
2017-11-18 23:35 METAR CYQA 182335Z AUTO 01003KT 2 1/2SM RA BR SCT005 SCT012 OVC017 01/01 A2930
                 RMK VIS VRB 1 1/2-3 SLP935 =
2017-11-18 23:27 METAR CYQA 182327Z AUTO VRB02KT 1 3/4SM -RA BR SCT003 OVC011 01/01 A2931 RMK VIS
                 VRB 1-3 SLP937 =
2017-11-18 23:00 METAR CYQA 182300Z AUTO 00000KT 1 1/2SM -RA BR OVC003 02/01 A2932 RMK VIS VRB
                 3/4-2 SLP941 =
2017-11-18 22:42 METAR CYQA 182242Z AUTO VRB02KT 2 1/4SM -RA BR OVC003 02/02 A2933 RMK PRESRR
                 SLP943 =
2017-11-18 22:27 METAR CYQA 182227Z AUTO VRB02KT 3SM -RA BR OVC003 02/01 A2931 RMK SLP938 =
2017-11-18 22:20 METAR CYQA 182220Z AUTO 07003KT 030V130 3SM BR OVC003 02/01 A2931 RMK SLP938 =
2017-11-18 22:16 METAR CYQA 182216Z AUTO 07003KT 030V130 2 1/2SM BR OVC003 02/01 A2931 RMK SLP937
                 =
2017-11-18 22:14 METAR CYQA 182214Z AUTO 06003KT 030V100 2 1/4SM BR OVC003 02/01 A2931 RMK SLP937
                 =
2017-11-18 22:05 METAR CYQA 182205Z AUTO 06004KT 020V110 1 1/2SM -RA BR OVC003 02/01 A2931 RMK
                 SLP937 =
2017-11-18 22:00 METAR CYQA 182200Z AUTO 05003KT 020V110 1 1/4SM -RA BR OVC003 02/01 A2931 RMK
                 PRESFR SLP937 =
2017-11-18 21:00 METAR CYQA 182100Z AUTO VRB02KT 3/4SM -RA BR VV003 02/02 A2935 RMK SLP952 =
2017-11-18 20:51 METAR CYQA 182051Z AUTO VRB02KT 3/4SM -RA BR VV003 02/02 A2935 RMK SLP952 =
2017-11-18 20:32 METAR CYQA 182032Z AUTO 09003KT 030V130 1 1/4SM BR OVC003 02/02 A2935 RMK SLP951
                 =
2017-11-18 20:19 METAR CYQA 182019Z AUTO VRB02KT 2SM BR OVC003 02/02 A2936 RMK SLP953 =
2017-11-18 20:01 METAR CYQA 182001Z AUTO 10003KT 070V140 2 1/2SM BR OVC003 02/02 A2936 RMK SLP953
                 =
2017-11-18 20:00 METAR CYQA 182000Z AUTO 10003KT 070V140 2 1/4SM BR OVC003 02/02 A2936 RMK SLP953
                 =
2017-11-18 19:15 METAR CYQA 181915Z AUTO 12005KT 2 1/4SM BR OVC003 02/01 A2938 RMK SLP960
2017-11-18 19:00 METAR CYQA 181900Z AUTO 12006KT 070V140 3SM BR OVC003 02/01 A2939 RMK SLP964 =
2017-11-18 18:28 METAR CYQA 181828Z AUTO 10005KT 3SM BR OVC003 02/01 A2941 RMK SLP972 =
2017-11-18 18:25 METAR CYQA 181825Z AUTO 09004KT 050V120 2 1/2SM BR OVC003 02/01 A2941 RMK SLP972
                 =
2017-11-18 18:18 METAR CYQA 181818Z AUTO 08004KT 040V120 2SM BR OVC003 02/01 A2942 RMK VIS VRB 1
                 1/2-3 PRESFR SLP973 =
2017-11-18 18:00 METAR CYQA 181800Z AUTO 12003KT 060V130 1 3/4SM -RA BR OVC003 01/01 A2944 RMK
                 SLP982 =
2017-11-18 17:52 METAR CYQA 181752Z AUTO 10004KT 060V140 1 3/4SM -RA BR OVC003 01/01 A2943 RMK
                 VIS VRB 1 1/2-3 SLP980 =
2017-11-18 17:50 METAR CYQA 181750Z AUTO 11003KT 2SM BR OVC003 01/01 A2944 RMK VIS VRB 1 3/4-3
                 SLP981 =
2017-11-18 17:43 METAR CYQA 181743Z AUTO 12004KT 2 1/2SM BR OVC003 01/01 A2944 RMK SLP982 =
2017-11-18 17:30 METAR CYQA 181730Z AUTO 12004KT 070V140 2 1/2SM -RA BR OVC003 01/01 A2944 RMK
                 SLP983 =
2017-11-18 17:14 METAR CYQA 181714Z AUTO 11004KT 2SM -RA BR OVC003 01/01 A2944 RMK SLP983 =
2017-11-18 17:00 METAR CYQA 181700Z AUTO 12004KT 2 1/2SM -RA BR OVC003 01/01 A2945 RMK VIS VRB
                 2-3 SLP985 =
2017-11-18 16:58 METAR CYQA 181658Z AUTO 12005KT 2 1/2SM -RA BR OVC003 01/01 A2945 RMK VIS VRB
                 2-3 SLP986 =
2017-11-18 16:14 METAR CYQA 181614Z AUTO 13006KT 2SM -RA BR OVC003 01/01 A2948 RMK VIS VRB 1
                 3/4-3 SLP995 =
2017-11-18 16:00 METAR CYQA 181600Z AUTO 12005KT 2 1/2SM -RA BR OVC003 01/01 A2948 RMK VIS VRB
                 2-3 SLP995 =
2017-11-18 15:32 METAR CYQA 181532Z AUTO 12007KT 2 1/2SM -RA BR OVC003 01/00 A2950 RMK SLP002 =
2017-11-18 15:28 METAR CYQA 181528Z AUTO 12007KT 2 1/2SM BR OVC003 01/00 A2950 RMK SLP002 =
2017-11-18 15:11 METAR CYQA 181511Z AUTO 13006KT 080V140 5SM BR OVC003 01/00 A2950 RMK SLP004 =
2017-11-18 15:09 METAR CYQA 181509Z AUTO 13007KT 080V140 5SM BR OVC005 01/00 A2950 RMK SLP003 =
2017-11-18 15:00 METAR CYQA 181500Z AUTO 12007KT 5SM -RA BR OVC005 01/00 A2950 RMK SLP003 =
2017-11-18 14:23 METAR CYQA 181423Z AUTO 13007KT 3SM -RA BR BKN005 OVC011 01/00 A2952 RMK SLP010
                 =
2017-11-18 14:21 METAR CYQA 181421Z AUTO 13007KT 3SM BR BKN005 OVC013 01/00 A2952 RMK SLP011 =
2017-11-18 14:00 METAR CYQA 181400Z AUTO 13007KT 3SM -RA BR BKN007 OVC013 00/M00 A2952 RMK SLP011
                 =
2017-11-18 13:48 METAR CYQA 181348Z AUTO 13007KT 3SM -RA BR BKN007 OVC013 00/M00 A2953 RMK SLP013
                 =
2017-11-18 13:34 METAR CYQA 181334Z AUTO 13007KT 3SM -RA BR SCT007 OVC013 00/M00 A2954 RMK SLP017
                 =
2017-11-18 13:26 METAR CYQA 181326Z AUTO 13007KT 5SM -RA BR BKN007 OVC013 00/M00 A2955 RMK SLP019
                 =
2017-11-18 13:18 METAR CYQA 181318Z AUTO 13008KT 5SM -RA BR SCT007 OVC015 00/M00 A2955 RMK SLP019
                 =
2017-11-18 13:16 METAR CYQA 181316Z AUTO 13008KT 5SM -RA BR BKN009 OVC015 00/M00 A2955 RMK SLP020
                 =
2017-11-18 13:00 METAR CYQA 181300Z AUTO 12007KT 4SM -RA BR SCT008 OVC014 00/M00 A2955 RMK SLP022
                 =
2017-11-18 12:57 METAR CYQA 181257Z AUTO 12007KT 4SM -RA BR SCT008 OVC016 00/M00 A2955 RMK SLP022
                 =
2017-11-18 12:55 METAR CYQA 181255Z AUTO 12009KT 4SM -RA BR BKN008 OVC017 00/M00 A2955 RMK SLP021
                 =
2017-11-18 12:53 METAR CYQA 181253Z AUTO 12007KT 4SM -RA BR BKN010 OVC019 00/M00 A2955 RMK SLP022
                 =
2017-11-18 12:52 METAR CYQA 181252Z AUTO 12008KT 3SM -RA BR BKN007 BKN013 OVC019 00/M00 A2955 RMK
                 SLP022 =
2017-11-18 12:49 METAR CYQA 181249Z AUTO 13010KT 3SM -RA BR FEW007 BKN011 OVC019 00/M00 A2955 RMK
                 SLP022 =
2017-11-18 12:47 METAR CYQA 181247Z AUTO 13009KT 2 1/2SM -RA BR SCT007 BKN011 OVC019 00/M00 A2955
                 RMK SLP022 =
2017-11-18 12:42 METAR CYQA 181242Z AUTO 13007KT 2SM -RA BR SCT009 OVC019 00/M00 A2955 RMK SLP021
                 =
2017-11-18 12:33 METAR CYQA 181233Z AUTO 12008KT 080V150 2SM -RA -UP BR FEW005 SCT009 OVC021
                 00/M00 A2955 RMK SLP022 =
2017-11-18 12:30 METAR CYQA 181230Z AUTO 12007KT 080V150 2 1/4SM -RA BR SCT007 OVC021 00/M00
                 A2955 RMK SLP022 =
2017-11-18 12:25 METAR CYQA 181225Z AUTO 11007KT 2 1/2SM -RA BR FEW009 OVC021 00/M00 A2956 RMK
                 SLP023 =
2017-11-18 12:14 METAR CYQA 181214Z AUTO 13009KT 4SM -RA BR FEW006 OVC023 00/M00 A2956 RMK SLP024
                 =
2017-11-18 12:09 METAR CYQA 181209Z AUTO 12008KT 4SM -RA -UP BR FEW006 OVC023 00/M00 A2956 RMK
                 SLP025 =
2017-11-18 12:04 METAR CYQA 181204Z AUTO 12009KT 090V150 4SM -RA -UP BR FEW006 OVC025 00/M00
                 A2956 RMK SLP025 =
2017-11-18 12:00 METAR CYQA 181200Z AUTO 12008KT 4SM -RA BR FEW006 BKN025 OVC029 00/M00 A2956 RMK
                 PCPN 1.0MM PAST HR SLP024 =
2017-11-18 11:41 METAR CYQA 181141Z AUTO 11008KT 3SM -RA BR FEW006 BKN029 OVC035 00/M00 A2956 RMK
                 SLP024 =
2017-11-18 11:35 METAR CYQA 181135Z AUTO 11008G15KT 5SM -RASN FEW006 BKN030 OVC036 00/M00 A2956
                 RMK PRESFR SLP025 =
2017-11-18 11:25 METAR CYQA 181125Z AUTO 11010G15KT 3SM -SN FEW006 SCT025 OVC032 00/M00 A2957 RMK
                 PRESFR SLP028 =
2017-11-18 11:23 METAR CYQA 181123Z AUTO 12009G15KT 2 1/2SM -SN FEW006 BKN028 OVC034 00/M00 A2958
                 RMK VIS VRB 1 3/4-3 PRESFR SLP029 =
2017-11-18 11:18 METAR CYQA 181118Z AUTO 12007KT 1 3/4SM -SN FEW004 OVC029 00/M00 A2958 RMK VIS
                 VRB 1-3 PRESFR SLP031 =
2017-11-18 11:07 METAR CYQA 181107Z AUTO 11006KT 1 1/4SM -SN FEW006 SCT026 BKN036 OVC045 00/M00
                 A2959 RMK VIS VRB 1-2 1/4 SLP034 =
2017-11-18 11:00 METAR CYQA 181100Z AUTO 12006KT 2 1/4SM -SN FEW028 BKN038 OVC045 00/M01 A2960
                 RMK VIS VRB 1-3 ICG PAST HR SLP037 =
2017-11-18 10:59 METAR CYQA 181059Z AUTO 12005KT 2 1/2SM -SN FEW028 BKN038 OVC045 00/M01 A2960
                 RMK VIS VRB 1-3 ICG PAST HR SLP037 =
2017-11-18 10:45 METAR CYQA 181045Z AUTO 12007KT 070V140 3SM -SN OVC044 00/M01 A2961 RMK ICG PAST
                 HR PRESFR SLP039 =
2017-11-18 10:35 METAR CYQA 181035Z AUTO 11006KT 3SM -SN SCT036 OVC044 00/M01 A2962 RMK ICG INTMT
                 SLP042 =
2017-11-18 10:29 METAR CYQA 181029Z AUTO 11005KT 5SM -SN -FZUP OVC046 00/M01 A2962 RMK ICG SLP046
                 =
2017-11-18 10:22 METAR CYQA 181022Z AUTO 12005G17KT 030V160 4SM -FZUP BR OVC046 00/M01 A2963 RMK
                 ICG SLP048 =
2017-11-18 10:16 METAR CYQA 181016Z AUTO 12008G17KT 090V150 4SM -SN -FZUP OVC048 00/M01 A2963 RMK
                 ICG SLP048 =
2017-11-18 10:10 METAR CYQA 181010Z AUTO 12007KT 5SM -SN OVC050 00/M01 A2963 RMK ICG SLP047 =
2017-11-18 10:09 METAR CYQA 181009Z AUTO 12007KT 6SM -SN OVC050 00/M01 A2963 RMK ICG PAST HR
                 SLP047 =
2017-11-18 10:04 METAR CYQA 181004Z AUTO 11009KT 080V140 7SM -SN OVC050 M00/M01 A2963 RMK ICG
                 INTMT SLP047 =
2017-11-18 10:00 METAR CYQA 181000Z AUTO 12008KT 080V140 7SM -SN -FZUP OVC050 M00/M01 A2963 RMK
                 ICG INTMT PRESFR SLP048 =
2017-11-18 09:58 METAR CYQA 180958Z AUTO 11006KT 7SM -SN -FZUP BKN050 OVC055 M00/M01 A2963 RMK
                 ICG INTMT PRESFR SLP048 =
2017-11-18 09:50 METAR CYQA 180950Z AUTO 11006KT 6SM -FZUP BR FEW031 SCT038 OVC050 M00/M01 A2964
                 RMK ICG PRESFR SLP050 =
2017-11-18 09:44 METAR CYQA 180944Z AUTO 12006KT 4SM -SN -FZUP BKN036 OVC055 M00/M01 A2965 RMK
                 ICG PRESFR SLP053 =
2017-11-18 09:38 METAR CYQA 180938Z AUTO 12007KT 3SM -SN BKN036 OVC055 00/M02 A2965 RMK ICG
                 PRESFR SLP054 =
2017-11-18 09:37 METAR CYQA 180937Z AUTO 12007KT 2 1/2SM -SN BKN036 OVC055 00/M02 A2965 RMK VIS
                 VRB 1 1/2-3 ICG PRESFR SLP055 =
2017-11-18 09:31 METAR CYQA 180931Z AUTO 13008KT 2 1/2SM -SN BKN034 OVC065 00/M02 A2966 RMK
                 PRESFR SLP058
2017-11-18 09:29 METAR CYQA 180929Z AUTO 12007KT 2 1/2SM -SN -UP BKN034 OVC070 00/M02 A2966 RMK
                 PRESFR SLP059 =
2017-11-18 09:25 METAR CYQA 180925Z AUTO 13009KT 5SM -SN -UP BKN034 OVC070 00/M02 A2967 RMK
                 PRESFR SLP061 =
2017-11-18 09:24 METAR CYQA 180924Z AUTO 11008KT 5SM -UP BR BKN034 OVC070 00/M02 A2967 RMK PRESFR
                 SLP061 =
2017-11-18 09:20 METAR CYQA 180920Z AUTO 12009KT 9SM -UP BKN039 OVC070 00/M02 A2967 RMK PRESFR
                 SLP062 =
2017-11-18 09:00 METAR CYQA 180900Z AUTO 15006KT 9SM FEW060 BKN074 OVC095 00/M02 A2971 RMK SLP073
                 =
2017-11-18 08:00 METAR CYQA 180800Z AUTO 12010G16KT 9SM BKN090 BKN140 M00/M03 A2969 RMK PRESFR
                 SLP069 =
2017-11-18 07:00 METAR CYQA 180700Z AUTO 13009KT 090V150 9SM OVC090 M00/M03 A2974 RMK SLP084 =
2017-11-18 06:00 METAR CYQA 180600Z AUTO 13010G17KT 9SM FEW100 BKN120 BKN140 M01/M03 A2977 RMK
                 SLP097 =
2017-11-18 05:00 METAR CYQA 180500Z AUTO 13009KT 9SM BKN090 BKN120 M01/M04 A2983 RMK SLP117 =

Support USWX by starting your Amazon purchase here.